createdAt,value
2023-01-25T00:01:29.394Z,103835.41
2023-01-25T00:06:33.509Z,103833.19
2023-01-25T00:11:44.589Z,103839.09
2023-01-25T00:16:53.260Z,103835.00
2023-01-25T00:22:06.755Z,103820.38
2023-01-25T00:27:11.410Z,103829.25
2023-01-25T00:32:49.459Z,103824.09
2023-01-25T00:37:56.917Z,103815.41
2023-01-25T00:43:07.380Z,103806.31
2023-01-25T00:48:12.460Z,103797.09
2023-01-25T00:53:17.762Z,103799.69
2023-01-25T00:58:24.776Z,103794.31
2023-01-25T01:03:33.752Z,103791.34
2023-01-25T01:08:39.773Z,103797.41
2023-01-25T01:13:49.915Z,103772.25
2023-01-25T01:18:55.749Z,103792.66
2023-01-25T01:24:02.589Z,103791.00
2023-01-25T01:29:12.490Z,103799.13
2023-01-25T01:34:16.757Z,103795.78
2023-01-25T01:39:25.769Z,103796.53
2023-01-25T01:45:03.011Z,103804.13
2023-01-25T01:50:28.260Z,103786.19
2023-01-25T01:55:40.069Z,103787.47
2023-01-25T02:00:47.871Z,103779.53
2023-01-25T02:05:58.181Z,103784.13
2023-01-25T02:11:03.097Z,103777.28
2023-01-25T02:16:20.127Z,103787.03
2023-01-25T02:21:30.710Z,103784.94
2023-01-25T02:26:35.415Z,103778.25
2023-01-25T02:31:38.725Z,103770.31
2023-01-25T02:36:44.894Z,103757.88
2023-01-25T02:41:50.108Z,103768.06
2023-01-25T02:46:54.335Z,103764.00
2023-01-25T02:51:59.410Z,103757.53
2023-01-25T02:57:11.764Z,103754.41
2023-01-25T03:02:27.208Z,103750.72
2023-01-25T03:07:37.584Z,103752.38
2023-01-25T03:12:51.048Z,103740.72
2023-01-25T03:17:54.138Z,103720.72
2023-01-25T03:22:57.934Z,103723.91
2023-01-25T03:28:05.823Z,103718.94
2023-01-25T03:33:26.936Z,103722.25
2023-01-25T03:38:33.981Z,103714.31
2023-01-25T03:43:39.912Z,103714.16
2023-01-25T03:48:46.099Z,103704.56
2023-01-25T03:53:52.194Z,103706.75
2023-01-25T03:58:59.575Z,103699.38
2023-01-25T04:04:03.682Z,103690.28
2023-01-25T04:09:13.854Z,103700.84
2023-01-25T04:14:42.582Z,103691.03
2023-01-25T04:20:10.193Z,103698.25
2023-01-25T04:25:35.392Z,103695.81
2023-01-25T04:30:42.678Z,103696.94
2023-01-25T04:35:48.459Z,103700.06
2023-01-25T04:40:56.737Z,103692.50
2023-01-25T04:46:03.896Z,103683.81
2023-01-25T04:51:09.843Z,103674.94
2023-01-25T04:56:15.018Z,103677.88
2023-01-25T05:01:25.796Z,103665.28
2023-01-25T05:06:32.228Z,103664.00
2023-01-25T05:11:35.573Z,103657.88
2023-01-25T05:16:44.530Z,103663.81
2023-01-25T05:21:59.896Z,103655.31
2023-01-25T05:27:22.736Z,103663.25
2023-01-25T05:32:49.425Z,103640.47
2023-01-25T05:38:12.196Z,103660.13
2023-01-25T05:48:39.556Z,103633.81
2023-01-25T05:53:47.149Z,103632.00
2023-01-25T05:58:59.628Z,103635.84
2023-01-25T06:04:07.794Z,103654.00
2023-01-25T06:09:20.942Z,103660.44
2023-01-25T06:14:30.523Z,103658.97
2023-01-25T06:19:47.581Z,103656.94
2023-01-25T06:25:10.771Z,103659.72
2023-01-25T06:30:26.519Z,103658.03
2023-01-25T06:35:43.584Z,103662.00
2023-01-25T06:40:49.723Z,103660.13
2023-01-25T06:46:00.799Z,103652.84
2023-01-25T06:51:36.747Z,103660.28
2023-01-25T06:56:51.317Z,103663.69
2023-01-25T07:02:28.433Z,103657.19
2023-01-25T07:07:34.155Z,103659.31
2023-01-25T07:12:41.406Z,103654.00
2023-01-25T07:17:50.175Z,103638.16
2023-01-25T07:22:56.413Z,103630.47
2023-01-25T07:28:25.533Z,103627.31
2023-01-25T07:33:31.808Z,103635.25
2023-01-25T07:38:46.671Z,103640.25
2023-01-25T07:44:03.485Z,103632.13
2023-01-25T07:49:11.879Z,103634.38
2023-01-25T07:54:17.917Z,103612.69
2023-01-25T07:59:42.603Z,103624.41
2023-01-25T08:04:46.036Z,103618.31
2023-01-25T08:09:54.547Z,103616.47
2023-01-25T08:14:59.325Z,103612.03
2023-01-25T08:20:15.379Z,103615.38
2023-01-25T08:25:22.465Z,103592.81
2023-01-25T08:30:56.248Z,103596.34
2023-01-25T08:36:08.890Z,103595.78
2023-01-25T08:41:16.635Z,103603.53
2023-01-25T08:46:31.367Z,103613.34
2023-01-25T08:51:35.423Z,103599.06
2023-01-25T08:56:44.588Z,103596.28
2023-01-25T09:01:49.313Z,103593.53
2023-01-25T09:06:57.851Z,103580.25
2023-01-25T09:17:40.373Z,103570.09
2023-01-25T09:22:47.738Z,103585.09
2023-01-25T09:27:57.082Z,103581.38
2023-01-25T09:33:05.904Z,103591.75
2023-01-25T09:38:11.406Z,103573.63
2023-01-25T09:43:29.089Z,103563.81
2023-01-25T09:48:53.918Z,103558.09
2023-01-25T09:54:07.046Z,103571.06
2023-01-25T09:59:22.174Z,103561.97
2023-01-25T10:04:37.383Z,103558.47
2023-01-25T10:09:51.161Z,103547.19
2023-01-25T10:15:00.363Z,103548.09
2023-01-25T10:20:28.059Z,103534.38
2023-01-25T10:25:44.412Z,103528.13
2023-01-25T10:30:58.356Z,103527.91
2023-01-25T10:36:11.345Z,103508.09
2023-01-25T10:41:38.719Z,103513.66
2023-01-25T10:47:17.990Z,103492.22
2023-01-25T10:52:42.631Z,103483.31
2023-01-25T10:57:57.994Z,103473.84
2023-01-25T11:03:02.485Z,103455.88
2023-01-25T11:08:31.492Z,103463.44
2023-01-25T11:13:35.286Z,103434.47
2023-01-25T11:18:57.316Z,103428.84
2023-01-25T11:24:23.615Z,103415.50
2023-01-25T11:29:30.557Z,103412.75
2023-01-25T11:34:44.052Z,103403.69
2023-01-25T11:40:00.446Z,103390.34
2023-01-25T11:45:48.876Z,103375.53
2023-01-25T11:51:00.259Z,103349.34
2023-01-25T11:56:21.448Z,103354.31
2023-01-25T12:01:43.582Z,103334.47
2023-01-25T12:07:03.010Z,103326.25
2023-01-25T12:12:23.513Z,103297.03
2023-01-25T12:23:18.991Z,103269.69
2023-01-25T12:28:30.307Z,103261.91
2023-01-25T12:33:39.425Z,103262.88
2023-01-25T12:38:52.107Z,103250.63
2023-01-25T12:44:04.822Z,103239.75
2023-01-25T12:49:22.647Z,103228.59
2023-01-25T12:54:40.246Z,103215.72
2023-01-25T12:59:55.914Z,103196.28
2023-01-25T13:05:04.496Z,103176.22
2023-01-25T13:10:45.481Z,103172.16
2023-01-25T13:15:53.883Z,103160.56
2023-01-25T13:21:04.360Z,103174.69
2023-01-25T13:26:49.240Z,103173.75
2023-01-25T13:31:59.075Z,103174.34
2023-01-25T13:37:20.959Z,103182.19
2023-01-25T13:42:30.526Z,103170.63
2023-01-25T13:47:40.092Z,103161.19
2023-01-25T13:53:05.136Z,103151.59
2023-01-25T13:58:27.887Z,103166.34
2023-01-25T14:03:36.778Z,103149.88
2023-01-25T14:08:50.056Z,103139.88
2023-01-25T14:14:00.017Z,103134.13
2023-01-25T14:19:35.742Z,103142.16
2023-01-25T14:24:44.749Z,103124.75
2023-01-25T14:29:50.886Z,103128.31
2023-01-25T14:34:59.092Z,103122.03
2023-01-25T14:40:12.481Z,103103.78
2023-01-25T14:45:27.836Z,103124.47
2023-01-25T14:50:40.068Z,103120.97
2023-01-25T14:55:46.159Z,103123.25
2023-01-25T15:00:54.096Z,103122.75
2023-01-25T15:06:05.780Z,103125.53
2023-01-25T15:11:45.541Z,103115.56
2023-01-25T15:16:57.292Z,103121.03
2023-01-25T15:22:09.818Z,103111.78
2023-01-25T15:27:15.818Z,103117.16
2023-01-25T15:32:33.194Z,103099.19
2023-01-25T15:37:37.928Z,103094.53
2023-01-25T15:42:42.507Z,103095.13
2023-01-25T15:47:50.147Z,103075.56
2023-01-25T15:53:01.130Z,103086.09
2023-01-25T15:58:10.948Z,103087.00
2023-01-25T16:03:22.554Z,103082.59
2023-01-25T16:08:34.796Z,103088.16
2023-01-25T16:13:37.712Z,103081.16
2023-01-25T16:18:46.871Z,103091.94
2023-01-25T16:24:03.673Z,103093.81
2023-01-25T16:29:11.165Z,103077.06
2023-01-25T16:34:22.261Z,103062.78
2023-01-25T16:39:40.837Z,103048.88
2023-01-25T16:44:46.241Z,103049.94
2023-01-25T16:49:49.496Z,103052.31
2023-01-25T16:55:02.482Z,103051.38
2023-01-25T17:00:08.313Z,103051.22
2023-01-25T17:05:17.204Z,103031.25
2023-01-25T17:10:35.284Z,102990.88
2023-01-25T17:15:38.731Z,102993.75
2023-01-25T17:20:45.400Z,102970.72
2023-01-25T17:25:54.886Z,102962.56
2023-01-25T17:31:02.634Z,102938.38
2023-01-25T17:36:17.535Z,102924.53
2023-01-25T17:41:26.324Z,102914.91
2023-01-25T17:46:33.532Z,102905.69
2023-01-25T17:51:40.233Z,102876.91
2023-01-25T17:56:48.247Z,102864.78
2023-01-25T18:01:54.438Z,102890.56
2023-01-25T18:06:58.627Z,102877.63
2023-01-25T18:12:08.105Z,102875.63
2023-01-25T18:17:17.000Z,102870.22
2023-01-25T18:22:37.132Z,102852.84
2023-01-25T18:27:41.882Z,102851.03
2023-01-25T18:32:45.100Z,102849.03
2023-01-25T18:37:51.823Z,102849.78
2023-01-25T18:43:04.752Z,102835.91
2023-01-25T18:48:22.855Z,102817.91
2023-01-25T18:53:34.454Z,102819.34
2023-01-25T18:58:45.377Z,102818.66
2023-01-25T19:03:54.061Z,102808.81
2023-01-25T19:09:00.880Z,102806.81
2023-01-25T19:14:21.448Z,102800.66
2023-01-25T19:19:31.967Z,102798.47
2023-01-25T19:24:44.353Z,102797.88
2023-01-25T19:29:53.081Z,102783.44
2023-01-25T19:35:01.626Z,102775.44
2023-01-25T19:40:05.244Z,102774.94
2023-01-25T19:45:16.615Z,102778.50
2023-01-25T19:50:31.506Z,102777.81
2023-01-25T19:55:44.812Z,102768.25
2023-01-25T20:00:55.148Z,102774.69
2023-01-25T20:06:01.604Z,102770.41
2023-01-25T20:11:14.038Z,102758.50
2023-01-25T20:16:28.372Z,102753.81
2023-01-25T20:21:41.638Z,102756.59
2023-01-25T20:26:55.914Z,102736.16
2023-01-25T20:32:03.988Z,102722.56
2023-01-25T20:37:13.244Z,102720.13
2023-01-25T20:42:21.675Z,102720.38
2023-01-25T20:47:29.929Z,102732.22
2023-01-25T20:52:33.609Z,102725.72
2023-01-25T20:57:43.524Z,102728.97
2023-01-25T21:02:51.250Z,102734.72
2023-01-25T21:08:01.351Z,102721.44
2023-01-25T21:13:04.497Z,102721.97
2023-01-25T21:18:15.721Z,102728.97
2023-01-25T21:23:22.432Z,102714.81
2023-01-25T21:28:29.199Z,102711.78
2023-01-25T21:33:50.987Z,102706.28
2023-01-25T21:39:00.782Z,102700.53
2023-01-25T21:44:26.899Z,102683.47
2023-01-25T21:49:50.139Z,102695.06
2023-01-25T21:54:55.110Z,102694.88
2023-01-25T22:00:08.750Z,102699.66
2023-01-25T22:05:30.229Z,102686.19
2023-01-25T22:10:35.601Z,102684.16
2023-01-25T22:15:38.994Z,102692.63
2023-01-25T22:20:48.026Z,102696.72
2023-01-25T22:25:52.004Z,102687.47
2023-01-25T22:31:00.916Z,102676.78
2023-01-25T22:36:06.841Z,102677.47
2023-01-25T22:46:38.266Z,102668.22
2023-01-25T22:51:46.503Z,102662.13
2023-01-25T22:56:50.110Z,102656.78
2023-01-25T23:01:57.458Z,102655.03
2023-01-25T23:07:15.935Z,102655.47
2023-01-25T23:12:25.532Z,102649.88
2023-01-25T23:17:50.871Z,102641.63
2023-01-25T23:22:58.109Z,102627.63
2023-01-25T23:28:08.871Z,102620.63
2023-01-25T23:33:12.108Z,102613.94
2023-01-25T23:38:16.978Z,102611.22
2023-01-25T23:43:22.471Z,102610.69
2023-01-25T23:48:31.274Z,102593.97
2023-01-25T23:53:44.576Z,102575.59
2023-01-25T23:58:48.381Z,102577.28
